Time;durP1;ratioP1;P1;durP2;ratioP2;P2;SDS_P1;SDS_P2;PMS_P1;PMS_P2;Temp;Humidity;BMP_temperature;BMP_pressure;BME280_temperature;BME280_humidity;BME280_pressure;Samples;Min_cycle;Max_cycle;Signal;HPM_P1;HPM_P2
2023/04/02 00:02:21;;;;;;;20.75;7.20;;;;;;;-1.52;69.28;97571.50;6288616;28;20060;-69
2023/04/02 00:05:29;;;;;;;15.45;6.70;;;;;;;-1.56;69.45;97566.34;6295170;28;20032;-68
2023/04/02 00:08:41;;;;;;;18.08;6.93;;;;;;;-1.65;69.02;97564.69;6296064;28;20143;-69
2023/04/02 00:11:54;;;;;;;15.27;6.25;;;;;;;-1.72;68.50;97575.94;6294632;28;20043;-65
2023/04/02 00:15:01;;;;;;;20.67;6.40;;;;;;;-1.81;68.68;97564.78;6289841;28;20052;-65
2023/04/02 00:18:12;;;;;;;17.27;7.25;;;;;;;-1.84;68.12;97571.66;6292393;28;20044;-66
2023/04/02 00:21:20;;;;;;;21.85;8.85;;;;;;;-1.85;68.48;97575.09;6292657;28;20060;-66
2023/04/02 00:24:21;;;;;;;46.13;19.10;;;;;;;-1.98;68.63;97569.16;6282429;28;20043;-66
2023/04/02 00:27:29;;;;;;;66.07;28.13;;;;;;;-2.03;68.01;97568.31;6284440;28;20063;-65
2023/04/02 00:30:34;;;;;;;82.07;32.70;;;;;;;-2.12;68.11;97568.34;6283752;28;20044;-64
2023/04/02 00:33:38;;;;;;;90.18;38.00;;;;;;;-2.17;68.33;97572.66;6283522;28;20059;-65
2023/04/02 00:36:40;;;;;;;89.78;39.88;;;;;;;-2.17;68.41;97573.53;6291568;28;20067;-65
2023/04/02 00:39:42;;;;;;;89.05;42.10;;;;;;;-2.24;67.62;97570.97;6282179;28;20041;-65
2023/04/02 00:42:47;;;;;;;93.82;41.42;;;;;;;-2.30;68.19;97567.53;6281596;28;20041;-66
2023/04/02 00:45:55;;;;;;;98.03;43.22;;;;;;;-2.29;68.37;97579.56;6284412;28;20442;-66
2023/04/02 00:49:16;;;;;;;80.15;36.22;;;;;;;-2.27;68.47;97580.41;6282565;28;20049;-65
2023/04/02 00:52:25;;;;;;;82.73;35.50;;;;;;;-2.31;68.26;97576.13;6285954;28;20764;-65
2023/04/02 00:55:39;;;;;;;68.07;30.85;;;;;;;-2.31;68.67;97581.28;6283722;28;20532;-65
2023/04/02 00:58:43;;;;;;;44.38;18.80;;;;;;;-2.34;68.39;97571.00;6286107;28;20147;-66
2023/04/02 01:02:00;;;;;;;38.75;16.23;;;;;;;-2.34;68.31;97578.72;6284784;28;20048;-66
2023/04/02 01:05:22;;;;;;;33.45;13.82;;;;;;;-2.32;68.43;97577.00;6281797;28;20033;-66
2023/04/02 01:09:00;;;;;;;39.40;14.55;;;;;;;-2.32;68.46;97579.59;6283122;28;20036;-66
2023/04/02 01:12:28;;;;;;;43.63;14.18;;;;;;;-2.37;68.29;97583.88;6283315;28;20048;-66
2023/04/02 01:15:41;;;;;;;36.72;12.55;;;;;;;-2.39;68.40;97577.88;6283246;28;20089;-66
2023/04/02 01:19:06;;;;;;;32.78;10.45;;;;;;;-2.37;68.58;97576.16;6287978;28;20045;-66
2023/04/02 01:22:10;;;;;;;27.33;10.18;;;;;;;-2.39;68.27;97577.88;6291315;28;20079;-66
2023/04/02 01:25:23;;;;;;;28.90;8.80;;;;;;;-2.35;67.82;97584.75;6286068;28;20716;-66
2023/04/02 01:28:34;;;;;;;26.00;7.97;;;;;;;-2.35;67.97;97587.34;6281529;28;20502;-65
2023/04/02 01:31:37;;;;;;;22.33;9.40;;;;;;;-2.34;68.00;97590.75;6281150;28;20052;-65
2023/04/02 01:34:45;;;;;;;35.42;11.38;;;;;;;-2.33;67.74;97593.31;6282506;28;20037;-65
2023/04/02 01:38:00;;;;;;;37.58;12.55;;;;;;;-2.34;67.98;97591.63;6285135;28;20037;-65
2023/04/02 01:41:10;;;;;;;39.13;13.52;;;;;;;-2.38;67.86;97600.19;6282365;28;20074;-65
2023/04/02 01:44:40;;;;;;;34.95;11.75;;;;;;;-2.36;68.08;97595.06;6281819;28;20044;-65
2023/04/02 01:47:42;;;;;;;34.28;12.90;;;;;;;-2.36;68.22;97595.91;6292424;28;20105;-67
2023/04/02 01:50:48;;;;;;;39.22;12.88;;;;;;;-2.33;67.99;97598.47;6291131;28;20075;-65
2023/04/02 01:53:53;;;;;;;38.00;12.45;;;;;;;-2.29;68.47;97589.03;6291244;28;20036;-64
2023/04/02 01:56:59;;;;;;;38.30;11.15;;;;;;;-2.23;68.09;97598.47;6292360;28;20131;-66
2023/04/02 02:00:12;;;;;;;28.98;11.52;;;;;;;-2.20;68.46;97604.47;6288382;28;20036;-65
2023/04/02 02:03:19;;;;;;;35.05;11.93;;;;;;;-2.17;68.49;97598.44;6282535;28;20041;-67
2023/04/02 02:06:24;;;;;;;33.92;13.00;;;;;;;-2.12;67.97;97594.16;6279240;28;20051;-66
2023/04/02 02:09:36;;;;;;;37.17;11.25;;;;;;;-2.12;68.20;97596.72;6283070;28;20418;-66
2023/04/02 02:12:42;;;;;;;41.42;13.13;;;;;;;-2.13;68.32;97597.56;6280233;28;20075;-67
2023/04/02 02:15:46;;;;;;;53.22;11.68;;;;;;;-2.12;68.29;97596.72;6277130;28;20052;-67
2023/04/02 02:18:55;;;;;;;38.38;11.45;;;;;;;-2.10;68.35;97605.28;6279212;28;20037;-67
2023/04/02 02:22:19;;;;;;;36.20;10.70;;;;;;;-2.04;68.20;97610.41;6280293;28;20585;-67
2023/04/02 02:25:29;;;;;;;26.10;10.60;;;;;;;-2.02;68.28;97608.72;6278963;28;20044;-64
2023/04/02 02:28:35;;;;;;;31.63;10.05;;;;;;;-1.92;68.23;97605.25;6278340;28;20102;-63
2023/04/02 02:31:43;;;;;;;26.05;10.32;;;;;;;-1.79;68.08;97600.03;6285026;28;20486;-64
2023/04/02 02:34:55;;;;;;;25.55;10.13;;;;;;;-1.63;67.87;97609.41;6291442;28;20063;-64
2023/04/02 02:38:18;;;;;;;32.22;11.73;;;;;;;-1.56;67.92;97605.06;6288337;28;20516;-64
2023/04/02 02:41:37;;;;;;;27.75;10.43;;;;;;;-1.43;67.70;97602.41;6280583;28;20182;-64
2023/04/02 02:44:46;;;;;;;33.53;10.00;;;;;;;-1.32;67.36;97611.84;6280254;28;20032;-64
2023/04/02 02:47:52;;;;;;;21.83;8.88;;;;;;;-1.23;67.12;97611.78;6283031;28;20042;-64
2023/04/02 02:50:57;;;;;;;18.23;7.65;;;;;;;-1.14;67.54;97601.38;6284323;28;20501;-63
2023/04/02 02:54:05;;;;;;;22.10;7.32;;;;;;;-0.96;66.72;97619.34;6293602;28;20421;-65
2023/04/02 02:57:15;;;;;;;23.55;8.38;;;;;;;-0.85;67.23;97610.63;6305097;28;20113;-64
2023/04/02 03:00:19;;;;;;;25.60;8.65;;;;;;;-0.79;66.87;97610.56;6284540;28;20502;-63
2023/04/02 03:03:28;;;;;;;30.58;9.18;;;;;;;-0.72;67.09;97610.53;6285223;28;20040;-64
2023/04/02 03:06:39;;;;;;;32.70;10.77;;;;;;;-0.67;67.10;97602.75;6289032;28;20037;-66
2023/04/02 03:10:04;;;;;;;27.05;10.38;;;;;;;-0.58;67.43;97613.00;6283332;28;20186;-66
2023/04/02 03:13:24;;;;;;;33.40;10.18;;;;;;;-0.46;67.77;97623.22;6282494;28;20053;-67
2023/04/02 03:16:40;;;;;;;36.65;11.57;;;;;;;-0.36;67.94;97617.97;6291533;28;20044;-67
2023/04/02 03:19:52;;;;;;;32.45;12.65;;;;;;;-0.28;67.24;97605.84;6311198;28;20060;-67
2023/04/02 03:23:05;;;;;;;42.10;13.77;;;;;;;-0.15;66.67;97607.41;6291993;28;20048;-67
2023/04/02 03:26:15;;;;;;;40.47;13.60;;;;;;;-0.03;66.63;97607.28;6290180;28;20068;-66
2023/04/02 03:29:25;;;;;;;34.45;13.48;;;;;;;0.07;66.81;97609.75;6292945;28;20037;-66
2023/04/02 03:32:31;;;;;;;42.70;14.85;;;;;;;0.15;66.46;97600.19;6284718;28;20060;-68
2023/04/02 03:36:11;;;;;;;43.30;15.07;;;;;;;0.42;66.77;97609.31;6289654;28;20455;-65
2023/04/02 03:39:32;;;;;;;38.50;15.93;;;;;;;0.56;66.17;97609.13;6277163;28;20064;-69
2023/04/02 03:42:52;;;;;;;42.55;17.38;;;;;;;0.68;66.57;97606.41;6289956;28;20036;-70
2023/04/02 03:46:16;;;;;;;46.80;18.13;;;;;;;0.81;65.49;97613.09;6281748;28;20201;-69
2023/04/02 03:49:45;;;;;;;49.53;18.98;;;;;;;0.94;65.51;97612.94;6295301;28;20048;-68
2023/04/02 03:52:49;;;;;;;56.20;21.00;;;;;;;1.08;65.60;97611.00;6296381;28;20414;-69
2023/04/02 03:55:58;;;;;;;50.45;20.92;;;;;;;1.21;65.04;97612.50;6294764;28;20040;-72
2023/04/02 03:59:21;;;;;;;40.13;16.75;;;;;;;1.43;64.92;97622.53;6292178;28;20502;-72
2023/04/02 04:02:53;;;;;;;47.33;16.70;;;;;;;1.59;63.80;97626.59;6296886;28;20052;-73
2023/04/02 04:06:07;;;;;;;33.90;13.35;;;;;;;1.71;63.90;97622.94;6287421;28;20264;-69
2023/04/02 04:09:29;;;;;;;35.92;14.07;;;;;;;1.87;63.29;97618.28;6287752;28;20036;-68
2023/04/02 04:12:45;;;;;;;33.42;11.48;;;;;;;2.04;63.04;97624.06;6289704;28;20059;-74
2023/04/02 04:16:03;;;;;;;28.48;8.82;;;;;;;2.16;62.24;97626.41;6295125;28;20193;-68
2023/04/02 04:19:16;;;;;;;23.98;9.90;;;;;;;2.28;61.77;97627.06;6295740;28;20043;-72
2023/04/02 04:22:32;;;;;;;28.15;8.38;;;;;;;2.40;62.02;97629.41;6290816;28;20119;-68
2023/04/02 04:25:35;;;;;;;26.48;9.35;;;;;;;2.48;61.56;97636.16;6289709;28;20041;-66
2023/04/02 04:28:57;;;;;;;17.52;6.68;;;;;;;2.64;61.35;97638.44;6295492;28;20053;-68
2023/04/02 04:32:48;;;;;;;17.35;6.65;;;;;;;2.80;61.08;97639.84;6288163;28;20044;-68
2023/04/02 04:35:56;;;;;;;19.52;5.68;;;;;;;2.88;60.54;97627.50;6285036;28;20055;-68
2023/04/02 04:39:13;;;;;;;24.58;6.30;;;;;;;3.04;60.37;97628.03;6295584;28;20044;-67
2023/04/02 04:42:32;;;;;;;28.10;6.20;;;;;;;3.18;59.85;97634.66;6293505;28;20045;-68
2023/04/02 04:45:36;;;;;;;19.67;6.70;;;;;;;3.30;59.93;97629.16;6289295;28;20044;-68
2023/04/02 04:48:52;;;;;;;22.52;4.90;;;;;;;3.45;59.84;97626.19;6294912;28;20060;-68
2023/04/02 04:52:24;;;;;;;27.30;5.28;;;;;;;3.67;58.98;97633.47;6289777;28;20213;-67
2023/04/02 04:55:38;;;;;;;35.65;5.78;;;;;;;3.79;58.74;97631.41;6294572;28;20139;-68
2023/04/02 04:58:42;;;;;;;32.33;4.68;;;;;;;3.89;58.30;97634.63;6293734;28;20505;-68
2023/04/02 05:01:56;;;;;;;25.48;3.53;;;;;;;4.04;57.67;97636.81;6290067;28;20513;-68
2023/04/02 05:05:16;;;;;;;15.88;3.17;;;;;;;4.11;57.45;97636.66;6295514;28;20055;-68
2023/04/02 05:08:33;;;;;;;13.38;2.78;;;;;;;4.26;56.97;97641.44;6289322;28;20056;-68
2023/04/02 05:11:44;;;;;;;7.90;2.20;;;;;;;4.40;56.64;97635.88;6288120;28;20106;-68
2023/04/02 05:15:00;;;;;;;9.77;2.25;;;;;;;4.54;56.37;97627.66;6294183;28;20139;-68
2023/04/02 05:18:23;;;;;;;7.18;1.60;;;;;;;4.69;55.89;97637.63;6290992;28;20047;-68
2023/04/02 05:22:14;;;;;;;9.10;2.05;;;;;;;4.85;55.61;97646.72;6295058;28;20036;-68
2023/04/02 05:25:31;;;;;;;13.65;2.60;;;;;;;5.09;55.04;97641.66;6247968;28;20048;-68
2023/04/02 05:29:18;;;;;;;6.13;1.67;;;;;;;9.65;48.44;97653.34;6258748;28;20044;-68
2023/04/02 05:32:46;;;;;;;9.10;2.47;;;;;;;16.95;35.87;97657.50;6244893;28;20056;-68
2023/04/02 05:36:16;;;;;;;6.35;1.98;;;;;;;22.06;27.59;97660.41;6294080;28;20048;-69
2023/04/02 05:39:25;;;;;;;11.95;1.92;;;;;;;26.25;23.00;97666.44;6286382;28;20064;-69
2023/04/02 05:42:34;;;;;;;14.95;2.33;;;;;;;28.78;20.46;97664.53;6292457;28;20044;-69
2023/04/02 05:45:38;;;;;;;20.52;3.50;;;;;;;30.84;17.69;97665.50;6294399;28;20052;-69
2023/04/02 05:48:49;;;;;;;21.77;3.78;;;;;;;32.07;16.77;97664.81;6294185;28;20064;-69
2023/04/02 05:51:56;;;;;;;26.83;3.33;;;;;;;32.81;13.49;97666.03;6291195;28;20075;-69
2023/04/02 05:55:15;;;;;;;18.45;3.55;;;;;;;33.54;14.03;97663.50;6287499;28;20041;-68
2023/04/02 05:58:37;;;;;;;27.48;3.25;;;;;;;34.97;13.42;97660.31;6287031;28;20654;-68
2023/04/02 06:02:12;;;;;;;31.67;4.75;;;;;;;36.19;11.47;97670.44;6293458;28;20052;-69
2023/04/02 06:05:20;;;;;;;26.70;3.85;;;;;;;35.74;11.74;97669.22;6293802;28;20051;-68
2023/04/02 06:08:31;;;;;;;27.30;4.18;;;;;;;37.01;10.39;97672.75;6291949;28;20033;-68
2023/04/02 06:11:41;;;;;;;25.52;4.13;;;;;;;38.85;9.55;97668.75;6291781;28;20484;-69
2023/04/02 06:14:45;;;;;;;24.10;3.72;;;;;;;40.05;9.13;97670.09;6293334;28;20048;-68
2023/04/02 06:18:00;;;;;;;19.75;3.00;;;;;;;40.88;8.57;97674.72;6293563;28;20044;-69
2023/04/02 06:21:07;;;;;;;20.30;3.20;;;;;;;41.42;7.73;97669.44;6292288;28;20060;-69
2023/04/02 06:24:19;;;;;;;22.20;5.07;;;;;;;42.12;7.53;97679.75;6290652;28;20048;-69
2023/04/02 06:27:24;;;;;;;20.27;3.22;;;;;;;42.80;7.15;97679.91;6290489;28;20079;-70
2023/04/02 06:30:31;;;;;;;18.33;3.53;;;;;;;43.35;6.19;97684.47;6293043;28;20048;-69
2023/04/02 06:33:36;;;;;;;22.73;3.42;;;;;;;43.41;6.74;97670.25;6292698;28;20032;-69
2023/04/02 06:36:40;;;;;;;17.35;3.17;;;;;;;43.95;6.86;97682.16;6292586;28;20040;-69
2023/04/02 06:39:46;;;;;;;20.27;3.38;;;;;;;44.05;6.22;97679.28;6284763;28;20052;-68
2023/04/02 06:42:58;;;;;;;16.35;3.35;;;;;;;44.59;5.90;97686.31;6292351;28;20575;-71
2023/04/02 06:46:17;;;;;;;13.45;3.15;;;;;;;44.27;6.03;97689.78;6292913;28;20414;-69
2023/04/02 06:49:47;;;;;;;7.35;3.13;;;;;;;44.38;6.08;97679.41;6291004;28;20551;-69
2023/04/02 06:52:55;;;;;;;7.95;2.42;;;;;;;43.86;6.08;97683.94;6290012;28;20044;-69
2023/04/02 06:56:31;;;;;;;10.50;2.08;;;;;;;45.02;5.67;97691.75;6290330;28;20181;-69
2023/04/02 06:59:39;;;;;;;9.57;2.00;;;;;;;45.42;5.11;97685.81;6287104;28;20056;-69
2023/04/02 07:02:49;;;;;;;9.13;1.65;;;;;;;45.53;5.09;97687.28;6293685;28;20052;-69
2023/04/02 07:05:58;;;;;;;2.85;1.00;;;;;;;45.32;5.00;97692.34;6288934;28;20076;-69
2023/04/02 07:09:05;;;;;;;5.78;1.45;;;;;;;43.85;4.94;97693.34;6291867;28;20514;-70
2023/04/02 07:12:19;;;;;;;5.75;0.98;;;;;;;42.83;5.86;97684.91;6291702;28;20076;-70
2023/04/02 07:15:30;;;;;;;5.10;0.80;;;;;;;42.33;5.98;97684.09;6290828;28;20102;-69
2023/04/02 07:18:37;;;;;;;2.83;1.00;;;;;;;41.72;5.79;97682.38;6286663;28;20044;-69
2023/04/02 07:21:41;;;;;;;2.40;1.10;;;;;;;42.06;6.03;97680.88;6288143;28;20055;-69
2023/04/02 07:24:44;;;;;;;4.38;1.10;;;;;;;42.50;5.16;97680.13;6291517;28;20402;-69
2023/04/02 07:27:51;;;;;;;5.28;1.00;;;;;;;43.33;4.95;97681.16;6291332;28;20521;-69
2023/04/02 07:30:57;;;;;;;4.85;1.23;;;;;;;44.95;4.39;97677.41;6293156;28;20037;-69
2023/04/02 07:34:05;;;;;;;2.63;0.90;;;;;;;45.73;3.75;97690.81;6293055;28;20040;-69
2023/04/02 07:37:15;;;;;;;2.00;1.10;;;;;;;45.11;3.92;97677.16;6297792;28;20132;-70
2023/04/02 07:40:21;;;;;;;5.68;1.48;;;;;;;45.26;3.92;97668.56;6296017;28;20048;-68
2023/04/02 07:43:23;;;;;;;2.22;0.63;;;;;;;43.78;3.75;97676.25;6295756;28;20493;-70
2023/04/02 07:46:29;;;;;;;4.45;0.82;;;;;;;42.19;4.55;97669.22;6296345;28;20189;-69
2023/04/02 07:49:33;;;;;;;2.42;0.60;;;;;;;41.98;4.42;97667.66;6295659;28;20513;-69
2023/04/02 07:52:43;;;;;;;5.38;0.80;;;;;;;43.41;4.26;97666.66;6296433;28;20044;-68
2023/04/02 07:55:54;;;;;;;2.10;0.60;;;;;;;44.76;3.69;97677.47;6291424;28;20044;-69
2023/04/02 07:58:58;;;;;;;2.97;0.60;;;;;;;45.84;3.84;97676.38;6296362;28;20041;-68
2023/04/02 08:02:15;;;;;;;4.57;0.95;;;;;;;46.07;3.50;97673.72;6296009;28;20501;-69
2023/04/02 08:05:21;;;;;;;7.65;1.08;;;;;;;44.92;3.64;97672.47;6296253;28;20555;-69
2023/04/02 08:08:28;;;;;;;4.97;3.08;;;;;;;44.24;4.10;97667.38;6296610;28;20047;-69
2023/04/02 08:11:32;;;;;;;6.65;2.00;;;;;;;44.01;4.23;97669.88;6294085;28;20135;-70
2023/04/02 08:14:37;;;;;;;4.07;1.23;;;;;;;44.94;4.19;97669.41;6296389;28;20143;-69
2023/04/02 08:17:42;;;;;;;17.30;5.78;;;;;;;45.86;3.75;97681.63;6296043;28;20409;-69
2023/04/02 08:20:46;;;;;;;3.30;1.20;;;;;;;44.37;4.06;97672.22;6295608;28;20052;-70
2023/04/02 08:23:47;;;;;;;4.68;0.82;;;;;;;43.07;4.18;97667.53;6294181;28;20032;-69
2023/04/02 08:26:55;;;;;;;1.23;0.63;;;;;;;42.61;4.77;97670.66;6294693;28;20041;-70
2023/04/02 08:29:56;;;;;;;2.25;0.88;;;;;;;41.43;4.42;97651.75;6294678;28;20044;-69
2023/04/02 08:33:07;;;;;;;3.13;0.82;;;;;;;41.62;4.79;97659.50;6295732;28;20101;-69
2023/04/02 08:36:15;;;;;;;3.35;1.20;;;;;;;42.44;4.39;97659.13;6293634;28;20049;-69
2023/04/02 08:39:22;;;;;;;2.25;0.70;;;;;;;43.12;4.31;97659.16;6293524;28;20041;-69
2023/04/02 08:42:42;;;;;;;2.85;0.98;;;;;;;44.04;4.29;97655.44;6292949;28;20059;-68
2023/04/02 08:45:55;;;;;;;2.85;0.80;;;;;;;44.45;3.74;97657.66;6294487;28;20043;-68
2023/04/02 08:49:03;;;;;;;2.20;0.77;;;;;;;45.07;4.02;97660.28;6295573;28;20194;-69
2023/04/02 08:52:23;;;;;;;5.63;1.63;;;;;;;45.56;3.84;97656.09;6295321;28;20047;-69
2023/04/02 08:55:58;;;;;;;3.10;1.00;;;;;;;46.02;3.49;97659.91;6293878;28;20182;-69
2023/04/02 08:59:26;;;;;;;5.55;1.00;;;;;;;46.35;3.74;97658.63;6294931;28;20037;-70
2023/04/02 09:02:44;;;;;;;3.90;0.70;;;;;;;45.99;3.40;97657.75;6294388;28;20044;-69
2023/04/02 09:05:52;;;;;;;2.22;0.90;;;;;;;45.54;3.54;97657.53;6294108;28;20036;-70
2023/04/02 09:08:59;;;;;;;4.25;0.73;;;;;;;43.54;3.77;97646.56;6294941;28;20036;-69
2023/04/02 09:12:03;;;;;;;5.50;0.65;;;;;;;42.70;4.38;97640.41;6293061;28;20045;-69
2023/04/02 09:15:10;;;;;;;4.10;0.80;;;;;;;42.77;4.31;97636.22;6288369;28;20048;-71
2023/04/02 09:18:17;;;;;;;4.95;1.10;;;;;;;43.70;4.30;97636.97;6291756;28;20063;-70
2023/04/02 09:21:21;;;;;;;2.47;0.57;;;;;;;43.77;4.11;97630.25;6294449;28;20507;-70
2023/04/02 09:24:27;;;;;;;3.90;0.60;;;;;;;43.51;3.60;97633.28;6292242;28;20045;-70
2023/04/02 09:27:34;;;;;;;4.90;0.80;;;;;;;42.91;3.37;97618.94;6294281;28;20145;-70
2023/04/02 09:31:04;;;;;;;28.52;3.10;;;;;;;42.25;4.15;97611.94;6294339;28;20043;-69
2023/04/02 09:34:26;;;;;;;6.10;1.00;;;;;;;42.09;3.60;97625.00;6288682;28;20127;-71
2023/04/02 09:37:29;;;;;;;3.78;0.68;;;;;;;39.84;4.07;97614.09;6294371;28;20038;-69
2023/04/02 09:40:50;;;;;;;3.33;0.65;;;;;;;39.88;4.33;97612.44;6287027;28;20102;-69
2023/04/02 09:44:18;;;;;;;2.70;0.50;;;;;;;40.79;4.27;97598.00;6293176;28;20052;-70
2023/04/02 09:47:27;;;;;;;8.95;4.78;;;;;;;39.80;4.27;97608.28;6293221;28;20059;-69
2023/04/02 09:50:32;;;;;;;1.52;1.13;;;;;;;39.21;4.25;97608.50;6291985;28;20040;-69
2023/04/02 09:53:36;;;;;;;2.67;0.80;;;;;;;37.99;4.66;97605.47;6293509;28;20048;-70
2023/04/02 09:56:57;;;;;;;1.85;0.88;;;;;;;37.08;4.87;97593.84;6288028;28;20044;-69
2023/04/02 10:00:22;;;;;;;3.83;1.00;;;;;;;36.96;5.24;97587.59;6289424;28;20045;-69
2023/04/02 10:03:27;;;;;;;3.83;0.95;;;;;;;37.21;4.64;97594.59;6293496;28;20072;-69
2023/04/02 10:06:33;;;;;;;5.10;1.02;;;;;;;37.57;4.59;97592.31;6292907;28;20044;-69
2023/04/02 10:09:37;;;;;;;7.15;2.95;;;;;;;37.35;4.52;97589.56;6292534;28;20057;-69
2023/04/02 10:12:41;;;;;;;6.20;3.13;;;;;;;36.40;5.24;97578.44;6292660;28;20536;-69
2023/04/02 10:16:11;;;;;;;1.60;0.85;;;;;;;36.02;5.23;97577.22;6293412;28;20059;-69
2023/04/02 10:19:31;;;;;;;2.20;1.15;;;;;;;34.75;5.64;97578.84;6291996;28;20056;-69
2023/04/02 10:22:38;;;;;;;2.55;1.20;;;;;;;33.63;5.95;97565.81;6293495;28;20044;-69
2023/04/02 10:25:51;;;;;;;4.50;1.17;;;;;;;33.93;6.02;97562.25;6295636;28;20053;-70
2023/04/02 10:29:31;;;;;;;9.55;2.05;;;;;;;35.02;5.57;97572.94;6286789;28;20036;-69
2023/04/02 10:32:50;;;;;;;5.53;1.40;;;;;;;34.31;5.54;97561.91;6293686;28;20043;-70
2023/04/02 10:36:22;;;;;;;3.78;1.13;;;;;;;33.81;5.60;97559.47;6292298;28;20044;-70
2023/04/02 10:39:38;;;;;;;5.47;1.10;;;;;;;34.00;5.65;97554.81;6290430;28;20049;-69
2023/04/02 10:43:02;;;;;;;6.35;1.30;;;;;;;34.38;5.26;97548.97;6293615;28;20041;-70
2023/04/02 10:46:17;;;;;;;3.10;1.05;;;;;;;33.33;5.29;97549.34;6288039;28;20391;-69
2023/04/02 10:49:30;;;;;;;8.27;1.27;;;;;;;32.35;5.40;97548.16;6288440;28;20051;-69
2023/04/02 10:52:56;;;;;;;4.13;0.80;;;;;;;31.95;5.65;97548.47;6293183;28;20045;-69
2023/04/02 10:56:04;;;;;;;3.53;0.80;;;;;;;31.29;5.46;97538.72;6291180;28;20049;-70
2023/04/02 10:59:16;;;;;;;5.68;2.03;;;;;;;31.26;5.34;97544.59;6288587;28;20040;-69
2023/04/02 11:02:28;;;;;;;7.33;1.70;;;;;;;31.28;5.41;97542.50;6292362;28;20040;-68
2023/04/02 11:05:50;;;;;;;7.68;1.38;;;;;;;31.95;5.27;97543.03;6292556;28;20076;-68
2023/04/02 11:08:58;;;;;;;9.15;1.38;;;;;;;32.29;5.53;97545.50;6295428;28;20055;-68
2023/04/02 11:12:03;;;;;;;3.45;0.95;;;;;;;31.35;6.22;97552.50;6295871;28;20533;-70
2023/04/02 11:15:15;;;;;;;4.95;0.90;;;;;;;30.59;6.11;97548.47;6296575;28;20421;-69
2023/04/02 11:18:40;;;;;;;2.92;0.98;;;;;;;30.48;6.27;97551.81;6290578;28;20048;-69
2023/04/02 11:21:58;;;;;;;6.03;0.90;;;;;;;30.02;6.19;97542.56;6296445;28;20151;-69
2023/04/02 11:25:03;;;;;;;3.55;0.98;;;;;;;30.17;6.06;97540.50;6293529;28;20036;-70
2023/04/02 11:28:22;;;;;;;3.53;0.88;;;;;;;30.54;6.13;97548.25;6288646;28;20052;-69
2023/04/02 11:31:26;;;;;;;5.03;1.13;;;;;;;30.15;6.27;97536.34;6295775;28;20090;-69
2023/04/02 11:34:51;;;;;;;4.75;1.33;;;;;;;29.50;6.73;97538.69;6290314;28;20051;-69
2023/04/02 11:37:55;;;;;;;4.25;1.63;;;;;;;28.95;7.04;97535.88;6288133;28;20147;-69
2023/04/02 11:41:01;;;;;;;7.93;1.13;;;;;;;28.20;7.15;97537.41;6294891;28;20052;-69
2023/04/02 11:44:22;;;;;;;8.27;1.33;;;;;;;27.24;7.86;97532.22;6296646;28;20044;-68
2023/04/02 11:47:29;;;;;;;2.80;1.00;;;;;;;26.63;8.32;97539.66;6296692;28;20049;-69
2023/04/02 11:50:36;;;;;;;5.43;1.50;;;;;;;26.30;8.31;97533.69;6296044;28;20048;-70
2023/04/02 11:53:45;;;;;;;4.65;1.27;;;;;;;26.50;8.58;97532.19;6296730;28;20048;-68
2023/04/02 11:56:59;;;;;;;2.15;1.08;;;;;;;26.46;8.51;97527.31;6292328;28;20412;-69
2023/04/02 12:00:17;;;;;;;4.68;1.00;;;;;;;26.07;8.94;97531.91;6295771;28;20053;-69
2023/04/02 12:03:39;;;;;;;2.90;1.30;;;;;;;25.21;9.41;97519.44;6297086;28;20520;-71
2023/04/02 12:06:46;;;;;;;13.65;5.40;;;;;;;24.46;9.95;97512.63;6295017;28;20040;-73
2023/04/02 12:09:59;;;;;;;4.43;2.92;;;;;;;24.79;9.85;97515.22;6289022;28;20037;-72
2023/04/02 12:13:17;;;;;;;11.68;2.95;;;;;;;25.12;9.23;97515.09;6294692;28;20041;-73
2023/04/02 12:16:30;;;;;;;3.45;1.20;;;;;;;25.37;9.41;97515.84;6293064;28;20041;-71
2023/04/02 12:19:33;;;;;;;;;;;;;;;25.59;9.49;97508.78;6290889;28;20486;-71
2023/04/02 12:22:39;;;;;;;4.63;0.88;;;;;;;24.86;10.13;97513.53;6292336;28;19942;-70
2023/04/02 12:25:57;;;;;;;2.85;1.15;;;;;;;24.20;10.34;97507.41;6292281;28;20858;-72
2023/04/02 12:29:28;;;;;;;4.68;1.10;;;;;;;23.28;10.80;97506.66;6279833;28;20056;-70
2023/04/02 12:32:37;;;;;;;6.05;1.27;;;;;;;22.71;10.93;97517.97;6292925;28;20051;-69
2023/04/02 12:35:45;;;;;;;2.67;1.15;;;;;;;22.11;11.36;97507.19;6291700;28;20052;-69
2023/04/02 12:38:48;;;;;;;2.67;1.08;;;;;;;21.43;11.77;97505.06;6293492;28;20041;-69
2023/04/02 12:41:52;;;;;;;4.05;1.20;;;;;;;20.97;12.46;97502.38;6288962;28;20486;-69
2023/04/02 12:44:59;;;;;;;3.08;1.08;;;;;;;20.79;12.83;97493.47;6293144;28;20052;-70
2023/04/02 12:48:05;;;;;;;5.05;1.20;;;;;;;20.71;12.84;97506.75;6295412;28;20325;-71
2023/04/02 12:51:07;;;;;;;2.85;1.17;;;;;;;20.91;12.87;97502.97;6291004;28;20060;-73
2023/04/02 12:54:16;;;;;;;5.28;1.25;;;;;;;21.11;13.09;97508.22;6291461;28;20052;-73
2023/04/02 12:57:29;;;;;;;5.07;1.60;;;;;;;21.05;13.28;97510.50;6289440;28;20490;-73
2023/04/02 13:00:32;;;;;;;4.55;1.45;;;;;;;20.83;13.14;97505.53;6295907;28;20525;-73
2023/04/02 13:03:38;;;;;;;7.30;2.00;;;;;;;20.73;13.39;97504.75;6293470;28;20044;-72
2023/04/02 13:06:59;;;;;;;5.88;1.27;;;;;;;20.63;13.03;97505.63;6291202;28;20045;-73
2023/04/02 13:10:26;;;;;;;5.38;1.45;;;;;;;20.46;13.28;97514.38;6295391;28;20502;-73
2023/04/02 13:13:33;;;;;;;5.30;1.33;;;;;;;20.23;13.13;97502.38;6294403;28;20055;-71
2023/04/02 13:16:37;;;;;;;7.57;1.70;;;;;;;19.86;13.35;97511.16;6294266;28;20040;-72
2023/04/02 13:19:44;;;;;;;5.40;1.45;;;;;;;19.80;13.38;97507.22;6290346;28;20131;-75
2023/04/02 13:22:46;;;;;;;10.13;1.70;;;;;;;19.70;13.56;97517.91;6292449;28;20048;-71
2023/04/02 13:25:52;;;;;;;6.70;1.95;;;;;;;19.42;13.80;97516.00;6294914;28;20083;-71
2023/04/02 13:29:22;;;;;;;8.13;2.08;;;;;;;19.06;13.78;97513.03;6293409;28;20047;-72
2023/04/02 13:32:29;;;;;;;8.60;2.35;;;;;;;18.60;14.13;97522.41;6293807;28;20044;-72
2023/04/02 13:35:35;;;;;;;7.80;2.70;;;;;;;18.20;14.41;97523.13;6294254;28;20052;-74
2023/04/02 13:38:38;;;;;;;12.98;3.10;;;;;;;17.73;14.94;97520.00;6291776;28;20133;-72
2023/04/02 13:41:47;;;;;;;9.48;2.70;;;;;;;17.25;15.30;97523.09;6286931;28;20080;-72
2023/04/02 13:44:51;;;;;;;10.73;2.30;;;;;;;16.67;15.68;97519.75;6287360;28;20053;-72
2023/04/02 13:47:59;;;;;;;7.82;2.13;;;;;;;16.01;16.36;97507.16;6291573;28;20037;-74
2023/04/02 13:51:04;;;;;;;10.80;2.90;;;;;;;15.63;16.86;97516.19;6286043;28;20627;-71
2023/04/02 13:54:16;;;;;;;6.07;1.98;;;;;;;15.15;17.39;97518.88;6290594;28;20048;-72
2023/04/02 13:57:20;;;;;;;4.35;1.35;;;;;;;14.76;17.48;97525.25;6289173;28;20531;-71
2023/04/02 14:00:27;;;;;;;9.25;1.63;;;;;;;14.31;17.82;97519.56;6290387;28;20040;-72
2023/04/02 14:03:29;;;;;;;5.10;1.75;;;;;;;13.95;18.24;97513.19;6291574;28;20138;-70
2023/04/02 14:07:02;;;;;;;6.07;1.27;;;;;;;13.72;18.39;97522.69;6293226;28;20056;-72
2023/04/02 14:10:25;;;;;;;4.97;1.38;;;;;;;13.33;18.49;97510.31;6282618;28;20048;-71
2023/04/02 14:14:09;;;;;;;8.70;1.52;;;;;;;13.06;18.77;97523.50;6293131;28;20052;-73
2023/04/02 14:17:29;;;;;;;5.18;1.42;;;;;;;12.70;18.94;97524.91;6274965;28;20495;-71
2023/04/02 14:20:38;;;;;;;6.93;2.33;;;;;;;12.44;19.04;97532.66;6285619;28;20417;-71
2023/04/02 14:24:06;;;;;;;7.80;1.40;;;;;;;12.20;18.99;97528.88;6288260;28;20063;-71
2023/04/02 14:27:21;;;;;;;2.85;1.20;;;;;;;11.87;19.49;97532.63;6277082;28;20414;-71
2023/04/02 14:30:41;;;;;;;4.10;1.20;;;;;;;11.55;19.85;97532.69;6291033;28;20064;-72
2023/04/02 14:34:01;;;;;;;4.75;1.25;;;;;;;11.31;20.01;97534.94;6287803;28;20033;-72
2023/04/02 14:37:21;;;;;;;6.93;1.60;;;;;;;11.05;20.62;97539.06;6289151;28;20498;-72
2023/04/02 14:40:48;;;;;;;4.93;1.48;;;;;;;10.77;20.99;97540.59;6282501;28;20409;-70
2023/04/02 14:44:05;;;;;;;8.55;1.75;;;;;;;10.65;21.59;97541.28;6293943;28;20052;-73
2023/04/02 14:47:30;;;;;;;6.22;1.80;;;;;;;10.52;21.25;97540.22;6293826;28;20093;-70
2023/04/02 14:50:43;;;;;;;6.60;1.42;;;;;;;10.37;21.93;97551.59;6291577;28;20187;-69
2023/04/02 14:54:01;;;;;;;7.18;1.58;;;;;;;10.17;22.53;97545.56;6285448;28;20491;-70
2023/04/02 14:57:09;;;;;;;8.10;1.95;;;;;;;9.95;22.85;97552.88;6284607;28;20509;-70
2023/04/02 15:00:27;;;;;;;5.95;1.75;;;;;;;9.83;23.53;97557.81;6292931;28;20443;-70
2023/04/02 15:03:37;;;;;;;3.33;1.70;;;;;;;9.69;23.92;97554.19;6296564;28;20560;-70
2023/04/02 15:06:51;;;;;;;5.75;1.90;;;;;;;9.63;24.29;97560.63;6297368;28;20045;-69